createdAt,value
2018-07-02T00:00:43.118Z,0.00
2018-07-02T00:01:43.141Z,0.00
2018-07-02T00:02:43.171Z,0.00
2018-07-02T00:03:43.201Z,0.00
2018-07-02T00:04:43.221Z,0.00
2018-07-02T00:05:43.249Z,0.00
2018-07-02T00:06:43.306Z,0.00
2018-07-02T00:07:43.300Z,0.00
2018-07-02T00:08:43.324Z,0.00
2018-07-02T00:09:43.350Z,0.00
2018-07-02T00:10:43.379Z,0.00
2018-07-02T00:11:43.402Z,0.00
2018-07-02T00:12:43.427Z,0.00
2018-07-02T00:13:43.454Z,0.00
2018-07-02T00:14:43.481Z,0.00
2018-07-02T00:15:43.507Z,0.00
2018-07-02T00:16:43.539Z,0.00
2018-07-02T00:17:43.558Z,0.00
2018-07-02T00:18:43.589Z,0.00
2018-07-02T00:19:43.613Z,0.00
2018-07-02T00:20:43.637Z,0.00
2018-07-02T00:21:43.683Z,0.00
2018-07-02T00:22:43.695Z,0.00
2018-07-02T00:23:43.716Z,0.00
2018-07-02T00:24:43.745Z,0.00
2018-07-02T00:25:43.790Z,0.00
2018-07-02T00:26:43.800Z,0.00
2018-07-02T00:27:43.817Z,0.00
2018-07-02T00:28:43.853Z,0.00
2018-07-02T00:29:43.873Z,0.00
2018-07-02T00:30:43.899Z,0.00
2018-07-02T00:31:43.979Z,0.00
2018-07-02T00:32:43.951Z,0.00
2018-07-02T00:33:43.983Z,0.00
2018-07-02T00:34:44.000Z,0.00
2018-07-02T00:35:44.029Z,0.00
2018-07-02T00:36:44.057Z,0.00
2018-07-02T00:37:44.083Z,0.00
2018-07-02T00:38:44.108Z,0.00
2018-07-02T00:39:44.140Z,0.00
2018-07-02T00:40:44.159Z,0.00
2018-07-02T00:41:44.188Z,0.00
2018-07-02T00:42:44.212Z,0.00
2018-07-02T00:43:44.240Z,0.00
2018-07-02T00:45:44.293Z,0.00
2018-07-02T00:46:44.315Z,0.00
2018-07-02T00:47:44.343Z,0.00
2018-07-02T00:48:44.370Z,0.00
2018-07-02T00:49:44.391Z,0.00
2018-07-02T00:50:44.422Z,0.00
2018-07-02T00:51:44.445Z,0.00
2018-07-02T00:52:44.476Z,0.00
2018-07-02T00:53:44.494Z,0.00
2018-07-02T00:54:44.522Z,0.00
2018-07-02T00:55:44.554Z,0.00
2018-07-02T00:56:44.579Z,0.00
2018-07-02T00:57:44.600Z,0.00
2018-07-02T00:58:44.626Z,0.00
2018-07-02T00:59:44.654Z,0.00
2018-07-02T01:00:44.681Z,0.00
2018-07-02T01:01:44.708Z,0.00
2018-07-02T01:02:44.731Z,0.00
2018-07-02T01:03:44.754Z,0.00
2018-07-02T01:04:44.785Z,0.00
2018-07-02T01:05:44.810Z,0.00
2018-07-02T01:06:44.836Z,0.00
2018-07-02T01:07:44.862Z,0.00
2018-07-02T01:08:44.884Z,0.00
2018-07-02T01:09:44.926Z,0.00
2018-07-02T01:10:44.934Z,0.00
2018-07-02T01:11:44.962Z,0.00
2018-07-02T01:12:44.992Z,0.00
2018-07-02T01:13:45.019Z,0.00
2018-07-02T01:14:45.040Z,0.00
2018-07-02T01:15:45.065Z,0.00
2018-07-02T01:16:45.092Z,0.00
2018-07-02T01:17:45.113Z,0.00
2018-07-02T01:18:45.142Z,0.00
2018-07-02T01:19:45.174Z,0.00
2018-07-02T01:20:45.190Z,0.00
2018-07-02T01:21:45.224Z,0.00
2018-07-02T01:22:45.238Z,0.00
2018-07-02T01:23:45.270Z,0.00
2018-07-02T01:24:45.296Z,0.00
2018-07-02T01:25:45.321Z,0.00
2018-07-02T01:26:45.350Z,0.00
2018-07-02T01:27:45.372Z,0.00
2018-07-02T01:28:45.400Z,0.00
2018-07-02T01:29:45.419Z,0.00
2018-07-02T01:30:45.448Z,0.00
2018-07-02T01:31:45.476Z,0.00
2018-07-02T01:32:45.502Z,0.00
2018-07-02T01:33:45.534Z,0.00
2018-07-02T01:34:45.548Z,0.00
2018-07-02T01:35:45.576Z,0.00
2018-07-02T01:36:45.601Z,0.00
2018-07-02T01:37:45.628Z,0.00
2018-07-02T01:38:45.651Z,0.00
2018-07-02T01:39:45.678Z,0.00
2018-07-02T01:40:45.698Z,0.00
2018-07-02T01:41:45.728Z,0.00
2018-07-02T01:42:45.748Z,0.00
2018-07-02T01:43:45.780Z,0.00
2018-07-02T01:44:45.806Z,0.00
2018-07-02T01:45:45.828Z,0.00
2018-07-02T01:46:45.860Z,0.00
2018-07-02T01:47:45.880Z,0.00
2018-07-02T01:48:45.904Z,0.00
2018-07-02T01:49:45.930Z,0.00
2018-07-02T01:50:45.957Z,0.00
2018-07-02T01:51:45.980Z,0.00
2018-07-02T01:52:46.012Z,0.00
2018-07-02T01:53:46.033Z,0.00
2018-07-02T01:54:46.058Z,0.00
2018-07-02T01:55:46.082Z,0.00
2018-07-02T01:56:46.112Z,0.00
2018-07-02T01:57:46.138Z,0.00
2018-07-02T01:58:46.164Z,0.00
2018-07-02T01:59:46.184Z,0.00
2018-07-02T02:00:46.214Z,4.00
2018-07-02T02:01:46.240Z,4.00
2018-07-02T02:02:46.264Z,4.00
2018-07-02T02:03:46.286Z,4.00
2018-07-02T02:04:46.315Z,4.00
2018-07-02T02:05:46.340Z,4.00
2018-07-02T02:06:46.368Z,0.00
2018-07-02T02:07:46.388Z,0.00
2018-07-02T02:08:46.412Z,0.00
2018-07-02T02:09:46.442Z,4.00
2018-07-02T02:10:46.470Z,4.00
2018-07-02T02:11:46.487Z,4.00
2018-07-02T02:12:46.512Z,4.00
2018-07-02T02:13:46.538Z,4.00
2018-07-02T02:14:46.569Z,4.00
2018-07-02T02:15:46.588Z,4.00
2018-07-02T02:16:46.615Z,4.00
2018-07-02T02:17:46.639Z,4.00
2018-07-02T02:18:46.668Z,8.00
2018-07-02T02:19:46.690Z,8.00
2018-07-02T02:20:46.718Z,12.00
2018-07-02T02:21:46.736Z,8.00
2018-07-02T02:22:46.821Z,8.00
2018-07-02T02:23:46.790Z,8.00
2018-07-02T02:24:46.813Z,16.00
2018-07-02T02:25:46.843Z,12.00
2018-07-02T02:26:46.869Z,16.00
2018-07-02T02:27:46.894Z,20.00
2018-07-02T02:28:46.922Z,20.00
2018-07-02T02:29:46.937Z,20.00
2018-07-02T02:30:46.968Z,24.00
2018-07-02T02:31:47.020Z,28.00
2018-07-02T02:32:47.018Z,28.00
2018-07-02T02:33:47.043Z,36.00
2018-07-02T02:34:47.070Z,40.00
2018-07-02T02:35:47.097Z,44.00
2018-07-02T02:36:47.113Z,48.00
2018-07-02T02:37:47.139Z,52.00
2018-07-02T02:38:47.167Z,56.00
2018-07-02T02:39:47.194Z,64.00
2018-07-02T02:40:47.221Z,72.00
2018-07-02T02:41:47.246Z,76.00
2018-07-02T02:42:47.265Z,84.00
2018-07-02T02:43:47.299Z,96.00
2018-07-02T02:44:47.316Z,104.00
2018-07-02T02:45:47.342Z,116.00
2018-07-02T02:46:47.369Z,124.00
2018-07-02T02:47:47.395Z,136.00
2018-07-02T02:48:47.420Z,148.00
2018-07-02T02:49:47.440Z,164.00
2018-07-02T02:50:47.467Z,176.00
2018-07-02T02:51:47.491Z,188.00
2018-07-02T02:52:47.516Z,208.00
2018-07-02T02:53:47.544Z,224.00
2018-07-02T02:54:47.567Z,240.00
2018-07-02T02:55:47.589Z,260.00
2018-07-02T02:56:47.619Z,276.00
2018-07-02T02:57:47.640Z,296.00
2018-07-02T02:58:47.666Z,316.00
2018-07-02T02:59:47.691Z,344.00
2018-07-02T03:00:47.718Z,364.00
2018-07-02T03:01:47.742Z,384.00
2018-07-02T03:02:47.768Z,416.00
2018-07-02T03:03:47.792Z,440.00
2018-07-02T03:04:47.816Z,464.00
2018-07-02T03:05:47.842Z,492.00
2018-07-02T03:06:47.866Z,516.00
2018-07-02T03:07:47.892Z,548.00
2018-07-02T03:08:47.916Z,576.00
2018-07-02T03:09:47.999Z,608.00
2018-07-02T03:10:47.968Z,636.00
2018-07-02T03:11:47.989Z,672.00
2018-07-02T03:12:48.016Z,712.00
2018-07-02T03:13:48.043Z,808.00
2018-07-02T03:14:48.076Z,948.00
2018-07-02T03:15:48.090Z,1024.00
2018-07-02T03:16:48.116Z,968.00
2018-07-02T03:17:48.140Z,904.00
2018-07-02T03:18:48.166Z,896.00
2018-07-02T03:19:48.190Z,920.00
2018-07-02T03:20:48.215Z,952.00
2018-07-02T03:21:48.243Z,984.00
2018-07-02T03:22:48.268Z,1016.00
2018-07-02T03:23:48.289Z,1052.00
2018-07-02T03:24:48.317Z,1080.00
2018-07-02T03:25:48.342Z,1112.00
2018-07-02T03:26:48.366Z,1148.00
2018-07-02T03:27:48.397Z,1180.00
2018-07-02T03:28:48.418Z,1212.00
2018-07-02T03:29:48.439Z,1244.00
2018-07-02T03:30:48.467Z,1276.00
2018-07-02T03:31:48.498Z,1304.00
2018-07-02T03:32:48.517Z,1340.00
2018-07-02T03:33:48.540Z,1368.00
2018-07-02T03:34:48.565Z,1396.00
2018-07-02T03:35:48.590Z,1428.00
2018-07-02T03:36:48.616Z,1460.00
2018-07-02T03:37:48.637Z,1484.00
2018-07-02T03:38:48.664Z,1512.00
2018-07-02T03:39:48.690Z,1548.00
2018-07-02T03:40:48.718Z,1576.00
2018-07-02T03:41:48.740Z,1600.00
2018-07-02T03:42:48.764Z,1628.00
2018-07-02T03:43:48.798Z,1656.00
2018-07-02T03:44:48.816Z,1676.00
2018-07-02T03:45:48.838Z,1708.00
2018-07-02T03:46:48.864Z,1736.00
2018-07-02T03:47:48.889Z,1764.00
2018-07-02T03:48:48.916Z,1788.00
2018-07-02T03:49:48.940Z,1816.00
2018-07-02T03:50:48.964Z,1840.00
2018-07-02T03:51:48.988Z,1864.00
2018-07-02T03:52:49.013Z,1888.00
2018-07-02T03:53:49.038Z,1908.00
2018-07-02T03:54:49.065Z,1936.00
2018-07-02T03:55:49.088Z,1960.00
2018-07-02T03:56:49.110Z,1980.00
2018-07-02T03:57:49.137Z,2004.00
2018-07-02T03:58:49.164Z,2024.00
2018-07-02T03:59:49.190Z,2048.00
2018-07-02T04:00:49.215Z,2064.00
2018-07-02T04:01:49.240Z,2088.00
2018-07-02T04:02:49.264Z,2104.00
2018-07-02T04:03:49.290Z,2128.00
2018-07-02T04:04:49.318Z,2148.00
2018-07-02T04:05:49.341Z,2168.00
2018-07-02T04:06:49.365Z,2188.00
2018-07-02T04:07:49.383Z,2204.00
2018-07-02T04:08:49.419Z,2224.00
2018-07-02T04:09:49.433Z,2244.00
2018-07-02T04:10:49.464Z,2260.00
2018-07-02T04:11:49.482Z,2276.00
2018-07-02T04:12:49.518Z,2292.00
2018-07-02T04:13:49.538Z,2312.00
2018-07-02T04:14:49.562Z,2328.00
2018-07-02T04:15:49.588Z,2344.00
2018-07-02T04:16:49.610Z,2356.00
2018-07-02T04:17:49.635Z,2376.00
2018-07-02T04:18:49.695Z,2392.00
2018-07-02T04:19:49.684Z,2404.00
2018-07-02T04:20:49.717Z,2420.00
2018-07-02T04:21:49.735Z,2436.00
2018-07-02T04:22:49.768Z,2448.00
2018-07-02T04:23:49.786Z,2464.00
2018-07-02T04:24:49.809Z,2476.00
2018-07-02T04:25:49.846Z,2488.00
2018-07-02T04:26:49.865Z,2504.00
2018-07-02T04:27:49.885Z,2492.00
2018-07-02T04:28:49.910Z,2528.00
2018-07-02T04:29:49.935Z,2544.00
2018-07-02T04:30:49.963Z,2552.00
2018-07-02T04:31:49.984Z,2568.00
2018-07-02T04:32:50.015Z,2580.00
2018-07-02T04:33:50.037Z,2588.00
2018-07-02T04:34:50.064Z,2604.00
2018-07-02T04:35:50.083Z,2616.00
2018-07-02T04:36:50.114Z,2632.00
2018-07-02T04:37:50.132Z,2640.00
2018-07-02T04:38:50.164Z,2648.00
2018-07-02T04:39:50.186Z,2656.00
2018-07-02T04:40:50.212Z,2668.00
2018-07-02T04:41:50.238Z,2680.00
2018-07-02T04:42:50.265Z,2688.00
2018-07-02T04:43:50.288Z,2704.00
2018-07-02T04:44:50.314Z,2712.00
2018-07-02T04:45:50.339Z,2720.00
2018-07-02T04:46:50.361Z,2732.00
2018-07-02T04:47:50.387Z,2740.00
2018-07-02T04:48:50.412Z,2752.00
2018-07-02T04:49:50.436Z,2764.00
2018-07-02T04:50:50.460Z,2772.00
2018-07-02T04:51:50.486Z,2776.00
2018-07-02T04:52:50.509Z,2788.00
2018-07-02T04:53:50.538Z,2796.00
2018-07-02T04:54:50.562Z,2804.00
2018-07-02T04:55:50.586Z,2816.00
2018-07-02T04:56:50.613Z,2824.00
2018-07-02T04:57:50.642Z,2828.00
2018-07-02T04:58:50.660Z,2840.00
2018-07-02T04:59:50.687Z,2844.00
2018-07-02T05:00:50.715Z,2856.00
2018-07-02T05:01:50.740Z,2864.00
2018-07-02T05:02:50.765Z,2872.00
2018-07-02T05:03:50.786Z,2880.00
2018-07-02T05:04:50.810Z,2888.00
2018-07-02T05:05:50.840Z,2896.00
2018-07-02T05:06:50.861Z,2900.00
2018-07-02T05:07:50.893Z,2908.00
2018-07-02T05:08:50.914Z,2916.00
2018-07-02T05:09:50.940Z,2872.00
2018-07-02T05:10:50.964Z,2932.00
2018-07-02T05:11:50.994Z,2936.00
2018-07-02T05:12:51.016Z,2944.00
2018-07-02T05:13:51.040Z,2952.00
2018-07-02T05:14:51.061Z,2956.00
2018-07-02T05:15:51.086Z,2968.00
2018-07-02T05:16:51.116Z,2976.00
2018-07-02T05:17:51.143Z,2984.00
2018-07-02T05:18:51.165Z,2984.00
2018-07-02T05:19:51.193Z,2992.00
2018-07-02T05:20:51.211Z,2996.00
2018-07-02T05:21:51.243Z,3000.00
2018-07-02T05:22:51.266Z,3004.00
2018-07-02T05:23:51.292Z,3012.00
2018-07-02T05:24:51.314Z,3020.00
2018-07-02T05:25:51.340Z,3024.00
2018-07-02T05:26:51.365Z,3028.00
2018-07-02T05:27:51.394Z,3036.00
2018-07-02T05:28:51.421Z,3040.00
2018-07-02T05:29:51.441Z,3044.00
2018-07-02T05:30:51.677Z,3048.00
2018-07-02T05:31:51.501Z,3056.00
2018-07-02T05:32:51.530Z,3068.00
2018-07-02T05:33:51.545Z,3068.00
2018-07-02T05:34:51.572Z,3076.00
2018-07-02T05:35:51.594Z,3080.00
2018-07-02T05:36:51.619Z,3088.00
2018-07-02T05:37:51.643Z,3092.00
2018-07-02T05:38:51.746Z,3096.00
2018-07-02T05:39:51.694Z,3100.00
2018-07-02T05:40:51.721Z,3104.00
2018-07-02T05:41:51.744Z,3108.00
2018-07-02T05:42:51.775Z,3112.00
2018-07-02T05:43:51.797Z,3116.00
2018-07-02T05:44:51.820Z,3120.00
2018-07-02T05:45:51.855Z,3100.00
2018-07-02T05:46:51.875Z,3128.00
2018-07-02T05:47:51.895Z,3132.00
2018-07-02T05:48:51.930Z,3136.00
2018-07-02T05:49:51.952Z,3140.00
2018-07-02T05:50:51.977Z,3144.00
2018-07-02T05:51:52.010Z,3148.00
2018-07-02T05:52:52.037Z,3152.00
2018-07-02T05:53:52.049Z,3152.00
2018-07-02T05:54:52.124Z,3160.00
2018-07-02T05:55:52.098Z,3164.00
2018-07-02T05:56:52.129Z,3168.00
2018-07-02T05:57:52.156Z,3172.00
2018-07-02T05:58:52.181Z,3172.00
2018-07-02T05:59:52.213Z,3180.00
2018-07-02T06:00:52.229Z,3188.00
2018-07-02T06:01:52.263Z,3196.00
2018-07-02T06:02:52.280Z,3196.00
2018-07-02T06:03:52.310Z,3200.00
2018-07-02T06:04:52.332Z,3200.00
2018-07-02T06:05:52.358Z,3204.00
2018-07-02T06:06:52.384Z,3208.00
2018-07-02T06:07:52.557Z,3216.00
2018-07-02T06:08:52.432Z,3220.00
2018-07-02T06:09:52.457Z,3228.00
2018-07-02T06:10:52.483Z,3228.00
2018-07-02T06:11:52.514Z,3240.00
2018-07-02T06:12:52.540Z,3240.00
2018-07-02T06:13:52.564Z,3236.00
2018-07-02T06:14:52.590Z,3244.00
2018-07-02T06:15:52.614Z,3252.00
2018-07-02T06:16:52.642Z,3260.00
2018-07-02T06:17:52.664Z,3264.00
2018-07-02T06:18:52.688Z,3268.00
2018-07-02T06:19:52.716Z,3268.00
2018-07-02T06:20:52.748Z,3272.00
2018-07-02T06:21:52.770Z,3276.00
2018-07-02T06:22:52.796Z,3284.00
2018-07-02T06:23:52.818Z,3288.00
2018-07-02T06:24:52.878Z,3300.00
2018-07-02T06:25:52.868Z,3296.00
2018-07-02T06:26:52.898Z,3304.00
2018-07-02T06:27:52.922Z,3292.00
2018-07-02T06:28:52.950Z,3304.00
2018-07-02T06:29:52.972Z,3308.00
2018-07-02T06:30:52.998Z,3308.00
2018-07-02T06:31:53.020Z,3312.00
2018-07-02T06:32:53.047Z,3312.00
2018-07-02T06:33:53.078Z,3308.00
2018-07-02T06:34:53.100Z,3320.00
2018-07-02T06:35:53.131Z,3324.00
2018-07-02T06:36:53.154Z,3320.00
2018-07-02T06:37:53.186Z,3324.00
2018-07-02T06:38:53.206Z,3324.00
2018-07-02T06:39:53.232Z,3392.00
2018-07-02T06:40:53.258Z,3332.00
2018-07-02T06:41:53.287Z,3332.00
2018-07-02T06:42:53.315Z,3336.00
2018-07-02T06:43:53.336Z,3336.00
2018-07-02T06:44:53.366Z,3340.00
2018-07-02T06:45:53.399Z,3312.00
2018-07-02T06:46:53.406Z,3348.00
2018-07-02T06:47:53.444Z,3348.00
2018-07-02T06:48:53.463Z,3340.00
2018-07-02T06:49:53.488Z,3348.00
2018-07-02T06:50:53.541Z,3356.00
2018-07-02T06:51:53.536Z,3356.00
2018-07-02T06:52:53.568Z,3364.00
2018-07-02T06:53:53.600Z,3364.00
2018-07-02T06:54:53.616Z,3364.00
2018-07-02T06:55:53.647Z,3376.00
2018-07-02T06:56:53.672Z,3372.00
2018-07-02T06:57:53.697Z,3336.00
2018-07-02T06:58:53.723Z,3464.00
2018-07-02T06:59:53.746Z,3376.00
2018-07-02T07:00:53.779Z,3372.00
2018-07-02T07:01:53.805Z,3380.00
2018-07-02T07:02:53.828Z,3376.00
2018-07-02T07:03:53.850Z,3380.00
2018-07-02T07:04:53.879Z,3384.00
2018-07-02T07:05:53.902Z,3384.00
2018-07-02T07:06:53.933Z,3380.00
2018-07-02T07:07:53.955Z,3388.00
2018-07-02T07:08:53.980Z,3388.00
2018-07-02T07:09:54.008Z,3376.00
2018-07-02T07:10:54.034Z,3392.00
2018-07-02T07:11:54.067Z,3388.00
2018-07-02T07:12:54.085Z,3372.00
2018-07-02T07:13:54.119Z,3388.00
2018-07-02T07:14:54.135Z,3384.00
2018-07-02T07:15:54.168Z,3380.00
2018-07-02T07:16:54.186Z,3388.00
2018-07-02T07:17:54.215Z,3392.00
2018-07-02T07:18:54.240Z,3384.00
2018-07-02T07:19:54.269Z,3392.00
2018-07-02T07:20:54.301Z,3404.00
2018-07-02T07:21:54.324Z,3396.00
2018-07-02T07:22:54.354Z,3404.00
2018-07-02T07:23:54.373Z,3408.00
2018-07-02T07:24:54.402Z,3372.00
2018-07-02T07:25:54.429Z,3416.00
2018-07-02T07:26:54.455Z,3316.00
2018-07-02T07:27:54.476Z,3408.00
2018-07-02T07:28:54.533Z,3412.00
2018-07-02T07:29:54.532Z,3412.00
2018-07-02T07:30:54.556Z,3408.00
2018-07-02T07:31:54.575Z,3412.00
2018-07-02T07:32:54.610Z,3420.00
2018-07-02T07:33:54.636Z,3416.00
2018-07-02T07:34:54.658Z,3436.00
2018-07-02T07:35:54.687Z,3428.00
2018-07-02T07:36:54.710Z,3428.00
2018-07-02T07:37:54.750Z,3424.00
2018-07-02T07:38:54.764Z,3432.00
2018-07-02T07:39:54.796Z,3432.00
2018-07-02T07:40:54.819Z,3436.00
2018-07-02T07:41:54.840Z,3440.00
2018-07-02T07:42:54.865Z,3444.00
2018-07-02T07:43:54.890Z,3432.00
2018-07-02T07:44:54.982Z,3452.00
2018-07-02T07:45:54.947Z,3496.00
2018-07-02T07:46:54.978Z,3424.00
2018-07-02T07:47:55.000Z,3428.00
2018-07-02T07:48:55.027Z,3984.00
2018-07-02T07:49:55.053Z,3432.00
2018-07-02T07:50:55.077Z,3440.00
2018-07-02T07:51:55.099Z,3440.00
2018-07-02T07:52:55.126Z,3452.00
2018-07-02T07:53:55.159Z,3440.00
2018-07-02T07:54:55.186Z,3476.00
2018-07-02T07:55:55.227Z,3656.00
2018-07-02T07:56:55.234Z,3448.00
2018-07-02T07:57:55.258Z,3548.00
2018-07-02T07:58:55.299Z,3468.00
2018-07-02T07:59:55.316Z,3452.00
2018-07-02T08:00:55.344Z,3452.00
2018-07-02T08:01:55.364Z,3496.00
2018-07-02T08:02:55.389Z,3500.00
2018-07-02T08:03:55.420Z,3488.00
2018-07-02T08:04:55.444Z,3512.00
2018-07-02T08:05:55.469Z,3512.00
2018-07-02T08:06:55.493Z,3508.00
2018-07-02T08:07:55.525Z,3516.00
2018-07-02T08:08:55.550Z,3520.00
2018-07-02T08:09:55.576Z,3512.00
2018-07-02T08:10:55.600Z,3532.00
2018-07-02T08:11:55.638Z,3548.00
2018-07-02T08:12:55.658Z,3640.00
2018-07-02T08:13:55.680Z,3540.00
2018-07-02T08:14:55.709Z,3540.00
2018-07-02T08:15:55.732Z,3556.00
2018-07-02T08:16:55.760Z,3548.00
2018-07-02T08:17:55.784Z,3560.00
2018-07-02T08:18:55.832Z,3544.00
2018-07-02T08:19:55.837Z,3560.00
2018-07-02T08:20:55.866Z,3548.00
2018-07-02T08:21:55.887Z,3568.00
2018-07-02T08:22:55.918Z,3576.00
2018-07-02T08:23:55.940Z,3572.00
2018-07-02T08:24:55.974Z,3620.00
2018-07-02T08:25:55.999Z,3576.00
2018-07-02T08:26:56.020Z,3596.00
2018-07-02T08:27:56.050Z,3576.00
2018-07-02T08:28:56.076Z,3580.00
2018-07-02T08:29:56.102Z,3584.00
2018-07-02T08:30:56.130Z,3708.00
2018-07-02T08:31:56.154Z,3636.00
2018-07-02T08:32:56.253Z,3600.00
2018-07-02T08:33:56.209Z,3600.00
2018-07-02T08:34:56.232Z,3672.00
2018-07-02T08:35:56.261Z,4108.00
2018-07-02T08:36:56.284Z,3604.00
2018-07-02T08:37:56.327Z,3620.00
2018-07-02T08:38:56.338Z,3636.00
2018-07-02T08:39:56.365Z,3632.00
2018-07-02T08:40:56.392Z,3636.00
2018-07-02T08:41:56.412Z,3636.00
2018-07-02T08:42:56.442Z,3660.00
2018-07-02T08:43:56.470Z,3656.00
2018-07-02T08:44:56.492Z,3656.00
2018-07-02T08:45:56.522Z,3720.00
2018-07-02T08:46:56.556Z,3660.00
2018-07-02T08:47:56.572Z,3672.00
2018-07-02T08:48:56.598Z,3808.00
2018-07-02T08:49:56.633Z,3676.00
2018-07-02T08:50:56.657Z,3684.00
2018-07-02T08:51:56.683Z,3692.00
2018-07-02T08:52:56.703Z,3696.00
2018-07-02T08:53:56.733Z,3708.00
2018-07-02T08:54:56.758Z,3716.00
2018-07-02T08:55:56.784Z,3720.00
2018-07-02T08:56:56.811Z,3712.00
2018-07-02T08:57:56.839Z,3728.00
2018-07-02T08:58:56.867Z,3744.00
2018-07-02T08:59:56.891Z,3752.00
2018-07-02T09:00:56.945Z,3764.00
2018-07-02T09:01:56.943Z,3764.00
2018-07-02T09:02:56.976Z,3768.00
2018-07-02T09:03:57.005Z,3768.00
2018-07-02T09:04:57.023Z,3784.00
2018-07-02T09:05:57.049Z,3804.00
2018-07-02T09:06:57.134Z,3820.00
2018-07-02T09:07:57.104Z,3808.00
2018-07-02T09:08:57.133Z,3816.00
2018-07-02T09:09:57.157Z,3816.00
2018-07-02T09:10:57.183Z,3836.00
2018-07-02T09:11:57.219Z,3844.00
2018-07-02T09:12:57.232Z,4140.00
2018-07-02T09:13:57.267Z,3864.00
2018-07-02T09:14:57.286Z,3880.00
2018-07-02T09:15:57.312Z,3896.00
2018-07-02T09:16:57.343Z,3900.00
2018-07-02T09:17:57.368Z,3908.00
2018-07-02T09:18:57.393Z,3924.00
2018-07-02T09:19:57.420Z,3932.00
2018-07-02T09:20:57.452Z,3940.00
2018-07-02T09:21:57.471Z,3960.00
2018-07-02T09:22:57.505Z,4004.00
2018-07-02T09:23:57.526Z,3980.00
2018-07-02T09:24:57.552Z,3988.00
2018-07-02T09:25:57.583Z,4008.00
2018-07-02T09:26:57.606Z,4028.00
2018-07-02T09:27:57.631Z,4052.00
2018-07-02T09:28:57.656Z,4092.00
2018-07-02T09:29:57.725Z,4120.00
2018-07-02T09:30:57.711Z,4112.00
2018-07-02T09:31:57.737Z,4120.00
2018-07-02T09:32:57.771Z,4128.00
2018-07-02T09:33:57.791Z,4120.00
2018-07-02T09:34:57.823Z,4100.00
2018-07-02T09:35:57.839Z,4192.00
2018-07-02T09:36:57.865Z,4220.00
2018-07-02T09:37:57.895Z,4280.00
2018-07-02T09:38:57.929Z,4256.00
2018-07-02T09:39:57.945Z,4236.00
2018-07-02T09:40:57.975Z,4304.00
2018-07-02T09:41:58.003Z,4388.00
2018-07-02T09:42:58.027Z,4448.00
2018-07-02T09:43:58.057Z,4488.00
2018-07-02T09:44:58.084Z,4496.00
2018-07-02T09:45:58.112Z,4740.00
2018-07-02T09:46:58.139Z,5184.00
2018-07-02T09:47:58.163Z,5296.00
2018-07-02T09:48:58.188Z,5288.00
2018-07-02T09:49:58.446Z,4868.00
2018-07-02T09:50:58.269Z,4872.00
2018-07-02T09:51:58.413Z,4864.00
2018-07-02T09:52:58.299Z,5056.00
2018-07-02T09:53:58.331Z,5360.00
2018-07-02T09:54:58.351Z,5492.00
2018-07-02T09:55:58.536Z,5756.00
2018-07-02T09:56:58.400Z,5780.00
2018-07-02T09:57:58.427Z,5932.00
2018-07-02T09:58:58.458Z,6048.00
2018-07-02T09:59:58.480Z,5984.00
2018-07-02T10:00:58.513Z,6148.00
2018-07-02T10:01:58.533Z,6364.00
2018-07-02T10:02:58.561Z,5760.00
2018-07-02T10:03:58.585Z,5820.00
2018-07-02T10:04:58.620Z,6048.00
2018-07-02T10:05:58.663Z,6452.00
2018-07-02T10:06:58.669Z,6852.00
2018-07-02T10:07:58.703Z,7096.00
2018-07-02T10:08:58.725Z,7248.00
2018-07-02T10:09:58.752Z,7188.00
2018-07-02T10:10:58.783Z,7460.00
2018-07-02T10:11:58.806Z,6828.00
2018-07-02T10:12:58.832Z,6388.00
2018-07-02T10:13:58.859Z,6412.00
2018-07-02T10:14:58.893Z,6412.00
2018-07-02T10:15:58.916Z,6424.00
2018-07-02T10:16:58.942Z,6652.00
2018-07-02T10:17:58.972Z,7072.00
2018-07-02T10:18:59.038Z,6752.00
2018-07-02T10:19:59.019Z,6568.00
2018-07-02T10:21:59.071Z,6820.00
2018-07-02T10:22:59.102Z,7028.00
2018-07-02T10:23:59.219Z,7228.00
2018-07-02T10:24:59.162Z,7552.00
2018-07-02T10:25:59.318Z,7696.00
2018-07-02T10:26:59.212Z,7508.00
2018-07-02T10:27:59.242Z,7520.00
2018-07-02T10:28:59.272Z,7736.00
2018-07-02T10:29:59.291Z,7968.00
2018-07-02T10:30:59.338Z,7344.00
2018-07-02T10:31:59.347Z,7444.00
2018-07-02T10:32:59.373Z,7856.00
2018-07-02T10:33:59.406Z,8516.00
2018-07-02T10:34:59.432Z,8916.00
2018-07-02T10:35:59.456Z,9056.00
2018-07-02T10:36:59.494Z,9024.00
2018-07-02T10:37:59.510Z,8932.00
2018-07-02T10:38:59.552Z,9152.00
2018-07-02T10:39:59.581Z,9380.00
2018-07-02T10:40:59.596Z,9336.00
2018-07-02T10:41:59.619Z,9156.00
2018-07-02T10:42:59.648Z,9780.00
2018-07-02T10:43:59.670Z,9368.00
2018-07-02T10:44:59.695Z,9572.00
2018-07-02T10:45:59.729Z,9088.00
2018-07-02T10:46:59.775Z,10388.00
2018-07-02T10:47:59.794Z,10248.00
2018-07-02T10:48:59.825Z,9720.00
2018-07-02T10:49:59.836Z,9052.00
2018-07-02T10:50:59.872Z,8524.00
2018-07-02T10:51:59.896Z,8344.00
2018-07-02T10:52:59.926Z,8196.00
2018-07-02T10:53:59.993Z,7804.00
2018-07-02T10:54:59.982Z,7832.00
2018-07-02T10:56:00.012Z,7808.00
2018-07-02T10:57:00.040Z,8028.00
2018-07-02T10:58:00.069Z,8544.00
2018-07-02T11:00:00.123Z,9960.00
2018-07-02T11:01:00.156Z,10832.00
2018-07-02T11:02:00.179Z,11780.00
2018-07-02T11:03:00.200Z,13028.00
2018-07-02T11:04:00.231Z,14452.00
2018-07-02T11:05:00.262Z,16096.00
2018-07-02T11:06:00.287Z,18560.00
2018-07-02T11:07:00.310Z,22944.00
2018-07-02T11:08:00.340Z,30816.00
2018-07-02T11:09:00.368Z,38816.00
2018-07-02T11:10:00.397Z,41664.00
2018-07-02T11:11:00.485Z,42624.00
2018-07-02T11:12:00.460Z,43456.00
2018-07-02T11:13:00.485Z,44672.00
2018-07-02T11:14:00.511Z,45760.00
2018-07-02T11:15:00.551Z,46560.00
2018-07-02T11:16:00.574Z,46912.00
2018-07-02T11:17:00.630Z,47328.00
2018-07-02T11:18:00.635Z,47584.00
2018-07-02T11:19:00.674Z,49152.00
2018-07-02T11:20:00.698Z,50016.00
2018-07-02T11:21:00.735Z,50272.00
2018-07-02T11:22:00.765Z,51232.00
2018-07-02T11:23:00.797Z,52256.00
2018-07-02T11:24:00.843Z,53600.00
2018-07-02T11:25:00.854Z,54048.00
2018-07-02T11:26:00.904Z,55936.00
2018-07-02T11:27:02.346Z,58368.00
2018-07-02T11:28:00.965Z,59552.00
2018-07-02T11:29:00.993Z,59008.00
2018-07-02T11:30:01.035Z,55744.00
2018-07-02T11:31:01.070Z,57568.00
2018-07-02T11:32:01.105Z,22784.00
2018-07-02T11:33:01.142Z,20992.00
2018-07-02T11:34:01.176Z,17952.00
2018-07-02T11:35:01.217Z,15584.00
2018-07-02T11:36:01.248Z,13012.00
2018-07-02T11:37:01.286Z,13260.00
2018-07-02T11:38:01.323Z,56672.00
2018-07-02T11:39:01.358Z,56672.00
2018-07-02T11:40:01.385Z,58784.00
2018-07-02T11:41:01.425Z,58496.00
2018-07-02T11:42:01.463Z,57920.00
2018-07-02T11:43:01.496Z,58688.00
2018-07-02T11:44:02.753Z,58560.00
2018-07-02T11:45:01.565Z,59392.00
2018-07-02T11:46:01.609Z,59392.00
2018-07-02T11:47:01.643Z,59904.00
2018-07-02T11:48:01.680Z,59680.00
2018-07-02T11:49:01.713Z,60192.00
2018-07-02T11:50:01.747Z,60640.00
2018-07-02T11:51:01.783Z,62272.00
2018-07-02T11:52:01.824Z,63616.00
2018-07-02T11:53:01.859Z,63744.00
2018-07-02T11:54:03.110Z,64800.00
2018-07-02T11:55:01.933Z,66144.00
2018-07-02T11:56:01.979Z,69376.00
2018-07-02T11:57:02.010Z,57024.00
2018-07-02T11:58:02.047Z,41376.00
2018-07-02T11:59:02.088Z,19072.00
2018-07-02T12:00:02.123Z,74624.00
2018-07-02T12:01:02.156Z,50592.00
2018-07-02T12:02:02.277Z,76544.00
2018-07-02T12:03:02.236Z,28352.00
2018-07-02T12:04:02.272Z,75136.00
2018-07-02T12:05:02.311Z,73120.00
2018-07-02T12:06:02.347Z,62784.00
2018-07-02T12:07:02.386Z,48800.00
2018-07-02T12:08:02.425Z,16304.00
2018-07-02T12:09:02.458Z,15192.00
2018-07-02T12:10:02.507Z,15572.00
2018-07-02T12:11:02.535Z,14224.00
2018-07-02T12:12:02.566Z,14704.00
2018-07-02T12:13:02.604Z,36576.00
2018-07-02T12:14:02.638Z,78016.00
2018-07-02T12:15:02.686Z,78720.00
2018-07-02T12:16:02.717Z,78720.00
2018-07-02T12:17:02.752Z,78656.00
2018-07-02T12:18:02.784Z,77760.00
2018-07-02T12:19:02.829Z,77184.00
2018-07-02T12:20:02.868Z,77568.00
2018-07-02T12:21:02.895Z,77120.00
2018-07-02T12:22:02.936Z,73024.00